createdAt,value
2018-12-10T00:01:43.522Z,5.10
2018-12-10T00:04:09.707Z,5.10
2018-12-10T00:06:36.077Z,5.10
2018-12-10T00:09:04.423Z,5.10
2018-12-10T00:11:30.649Z,5.10
2018-12-10T00:13:56.862Z,5.00
2018-12-10T00:16:23.039Z,5.00
2018-12-10T00:18:49.216Z,5.00
2018-12-10T00:21:15.365Z,5.00
2018-12-10T00:23:41.505Z,4.90
2018-12-10T00:26:07.767Z,4.90
2018-12-10T00:28:41.030Z,4.90
2018-12-10T00:31:07.180Z,4.90
2018-12-10T00:33:33.358Z,4.90
2018-12-10T00:35:59.473Z,4.80
2018-12-10T00:38:25.626Z,4.80
2018-12-10T00:40:51.805Z,4.90
2018-12-10T00:43:18.017Z,4.90
2018-12-10T00:45:44.207Z,4.90
2018-12-10T00:48:10.389Z,4.90
2018-12-10T00:50:36.569Z,4.80
2018-12-10T00:53:02.730Z,4.70
2018-12-10T00:55:28.857Z,4.70
2018-12-10T00:57:55.124Z,4.80
2018-12-10T01:00:21.405Z,4.80
2018-12-10T01:02:47.557Z,4.80
2018-12-10T01:05:13.859Z,4.80
2018-12-10T01:07:40.014Z,4.80
2018-12-10T01:10:06.447Z,4.80
2018-12-10T01:12:32.691Z,4.80
2018-12-10T01:14:58.850Z,4.80
2018-12-10T01:17:25.005Z,4.80
2018-12-10T01:19:51.110Z,4.90
2018-12-10T01:22:17.377Z,4.80
2018-12-10T01:24:43.539Z,4.80
2018-12-10T01:27:09.736Z,4.80
2018-12-10T01:29:35.962Z,4.70
2018-12-10T01:32:02.199Z,4.70
2018-12-10T01:34:28.397Z,4.70
2018-12-10T01:36:54.603Z,4.70
2018-12-10T01:39:20.709Z,4.60
2018-12-10T01:41:46.877Z,4.70
2018-12-10T01:44:13.038Z,4.70
2018-12-10T01:46:39.211Z,4.60
2018-12-10T01:49:05.420Z,4.70
2018-12-10T01:51:31.577Z,4.70
2018-12-10T01:53:57.691Z,4.60
2018-12-10T01:56:23.813Z,4.60
2018-12-10T01:58:49.943Z,4.60
2018-12-10T02:01:16.143Z,4.60
2018-12-10T02:03:42.263Z,4.60
2018-12-10T02:06:08.433Z,4.50
2018-12-10T02:08:34.825Z,4.60
2018-12-10T02:11:00.957Z,4.60
2018-12-10T02:13:34.189Z,4.60
2018-12-10T02:16:00.321Z,4.50
2018-12-10T02:18:26.443Z,4.50
2018-12-10T02:20:52.550Z,4.40
2018-12-10T02:23:18.710Z,4.50
2018-12-10T02:25:44.930Z,4.60
2018-12-10T02:28:11.068Z,4.60
2018-12-10T02:30:37.345Z,4.50
2018-12-10T02:33:03.518Z,4.50
2018-12-10T02:35:29.692Z,4.50
2018-12-10T02:38:02.924Z,4.50
2018-12-10T02:40:29.042Z,4.60
2018-12-10T02:42:55.199Z,4.70
2018-12-10T02:45:21.458Z,4.70
2018-12-10T02:47:47.626Z,4.60
2018-12-10T02:50:13.778Z,4.60
2018-12-10T02:52:39.974Z,4.60
2018-12-10T02:55:06.268Z,4.70
2018-12-10T02:57:32.422Z,4.60
2018-12-10T02:59:58.713Z,4.70
2018-12-10T03:02:24.929Z,4.60
2018-12-10T03:04:51.121Z,4.70
2018-12-10T03:07:17.306Z,4.80
2018-12-10T03:09:50.295Z,4.70
2018-12-10T03:12:16.436Z,4.70
2018-12-10T03:14:42.546Z,4.80
2018-12-10T03:17:08.657Z,4.80
2018-12-10T03:19:34.810Z,4.80
2018-12-10T03:22:00.923Z,4.80
2018-12-10T03:24:27.020Z,4.90
2018-12-10T03:26:53.229Z,4.90
2018-12-10T03:29:19.614Z,4.80
2018-12-10T03:31:45.691Z,4.90
2018-12-10T03:34:11.942Z,4.90
2018-12-10T03:36:38.213Z,4.90
2018-12-10T03:39:04.741Z,5.00
2018-12-10T03:41:30.882Z,5.00
2018-12-10T03:43:57.037Z,5.00
2018-12-10T03:46:23.123Z,5.00
2018-12-10T03:48:49.284Z,4.90
2018-12-10T03:51:15.454Z,4.90
2018-12-10T03:53:41.623Z,4.90
2018-12-10T03:56:07.899Z,4.90
2018-12-10T03:58:34.147Z,4.90
2018-12-10T04:01:00.294Z,4.90
2018-12-10T04:03:26.451Z,4.90
2018-12-10T04:05:52.615Z,4.90
2018-12-10T04:08:18.948Z,4.90
2018-12-10T04:10:45.127Z,4.90
2018-12-10T04:13:11.347Z,4.80
2018-12-10T04:15:38.036Z,4.80
2018-12-10T04:18:04.732Z,4.90
2018-12-10T04:20:31.068Z,4.90
2018-12-10T04:22:57.239Z,5.00
2018-12-10T04:25:23.346Z,4.80
2018-12-10T04:27:49.542Z,4.90
2018-12-10T04:30:15.646Z,5.00
2018-12-10T04:32:41.830Z,4.90
2018-12-10T04:35:07.984Z,4.80
2018-12-10T04:37:41.138Z,4.80
2018-12-10T04:40:07.279Z,4.90
2018-12-10T04:42:33.550Z,4.80
2018-12-10T04:44:59.716Z,4.80
2018-12-10T04:47:25.925Z,4.80
2018-12-10T04:49:52.128Z,4.80
2018-12-10T04:52:18.299Z,4.70
2018-12-10T04:54:44.424Z,4.70
2018-12-10T04:57:17.414Z,4.60
2018-12-10T04:59:43.528Z,4.60
2018-12-10T05:02:09.743Z,4.70
2018-12-10T05:04:35.840Z,4.70
2018-12-10T05:07:02.018Z,4.60
2018-12-10T05:09:28.194Z,4.70
2018-12-10T05:11:54.319Z,4.70
2018-12-10T05:14:27.476Z,4.70
2018-12-10T05:16:53.651Z,4.60
2018-12-10T05:19:19.934Z,4.60
2018-12-10T05:21:46.165Z,4.70
2018-12-10T05:24:12.326Z,4.70
2018-12-10T05:26:38.520Z,4.70
2018-12-10T05:29:05.010Z,4.60
2018-12-10T05:31:38.086Z,4.60
2018-12-10T05:34:04.204Z,4.60
2018-12-10T05:36:30.377Z,4.50
2018-12-10T05:38:56.553Z,4.50
2018-12-10T05:41:22.693Z,4.50
2018-12-10T05:43:49.055Z,4.50
2018-12-10T05:46:15.236Z,4.50
2018-12-10T05:48:41.433Z,4.40
2018-12-10T05:51:07.774Z,4.40
2018-12-10T05:53:33.970Z,4.40
2018-12-10T05:56:00.119Z,4.30
2018-12-10T05:58:26.338Z,4.30
2018-12-10T06:00:59.490Z,4.20
2018-12-10T06:03:25.600Z,4.20
2018-12-10T06:05:51.730Z,4.20
2018-12-10T06:08:17.945Z,4.20
2018-12-10T06:10:44.056Z,4.10
2018-12-10T06:13:10.442Z,4.20
2018-12-10T06:15:36.633Z,4.20
2018-12-10T06:18:02.769Z,4.20
2018-12-10T06:20:28.943Z,4.30
2018-12-10T06:22:55.117Z,4.20
2018-12-10T06:25:21.441Z,4.20
2018-12-10T06:27:47.691Z,4.20
2018-12-10T06:30:13.830Z,4.20
2018-12-10T06:32:47.039Z,4.20
2018-12-10T06:35:13.193Z,4.20
2018-12-10T06:37:39.375Z,4.20
2018-12-10T06:40:05.642Z,4.20
2018-12-10T06:42:31.750Z,4.20
2018-12-10T06:44:57.948Z,4.20
2018-12-10T06:47:24.087Z,4.30
2018-12-10T06:49:50.476Z,4.30
2018-12-10T06:52:16.673Z,4.20
2018-12-10T06:54:42.848Z,4.30
2018-12-10T06:57:09.181Z,4.30
2018-12-10T06:59:35.386Z,4.30
2018-12-10T07:02:01.552Z,4.40
2018-12-10T07:04:27.921Z,4.40
2018-12-10T07:06:54.136Z,4.50
2018-12-10T07:09:20.298Z,4.40
2018-12-10T07:11:46.447Z,4.40
2018-12-10T07:14:12.596Z,4.30
2018-12-10T07:16:38.806Z,4.30
2018-12-10T07:19:05.105Z,4.40
2018-12-10T07:21:31.270Z,4.40
2018-12-10T07:23:57.429Z,4.50
2018-12-10T07:26:23.672Z,4.50
2018-12-10T07:28:56.884Z,4.50
2018-12-10T07:31:23.214Z,4.40
2018-12-10T07:33:49.456Z,4.40
2018-12-10T07:36:15.599Z,4.40
2018-12-10T07:38:41.802Z,4.40
2018-12-10T07:41:08.044Z,4.40
2018-12-10T07:43:34.170Z,4.30
2018-12-10T07:46:00.290Z,4.40
2018-12-10T07:48:26.504Z,4.40
2018-12-10T07:50:59.702Z,4.30
2018-12-10T07:53:25.925Z,4.40
2018-12-10T07:55:52.246Z,4.50
2018-12-10T07:58:18.494Z,4.60
2018-12-10T08:00:44.680Z,4.50
2018-12-10T08:03:10.860Z,4.60
2018-12-10T08:05:36.983Z,4.60
2018-12-10T08:08:03.216Z,4.70
2018-12-10T08:10:29.409Z,4.80
2018-12-10T08:12:55.581Z,4.80
2018-12-10T08:15:21.706Z,4.80
2018-12-10T08:17:47.826Z,4.90
2018-12-10T08:20:13.969Z,4.80
2018-12-10T08:22:40.147Z,4.80
2018-12-10T08:25:06.529Z,4.80
2018-12-10T08:27:32.673Z,4.80
2018-12-10T08:29:58.828Z,4.80
2018-12-10T08:32:24.995Z,4.80
2018-12-10T08:34:51.183Z,4.80
2018-12-10T08:37:17.319Z,4.90
2018-12-10T08:39:43.472Z,4.90
2018-12-10T08:42:09.592Z,4.90
2018-12-10T08:44:35.785Z,4.90
2018-12-10T08:47:01.949Z,4.90
2018-12-10T08:49:28.111Z,4.90
2018-12-10T08:51:54.289Z,5.00
2018-12-10T08:54:20.454Z,4.90
2018-12-10T08:56:46.613Z,4.90
2018-12-10T08:59:12.725Z,4.90
2018-12-10T09:01:38.870Z,4.90
2018-12-10T09:04:04.970Z,4.80
2018-12-10T09:06:31.134Z,4.90
2018-12-10T09:08:57.244Z,4.80
2018-12-10T09:11:23.438Z,4.80
2018-12-10T09:13:49.734Z,4.80
2018-12-10T09:16:15.927Z,4.80
2018-12-10T09:18:42.432Z,4.90
2018-12-10T09:21:08.628Z,4.90
2018-12-10T09:23:34.816Z,4.90
2018-12-10T09:26:01.076Z,4.90
2018-12-10T09:28:27.382Z,4.90
2018-12-10T09:30:53.516Z,4.90
2018-12-10T09:33:19.612Z,5.00
2018-12-10T09:35:45.804Z,5.20
2018-12-10T09:38:11.982Z,5.20
2018-12-10T09:40:38.116Z,5.20
2018-12-10T09:43:04.351Z,5.20
2018-12-10T09:45:30.494Z,5.40
2018-12-10T09:47:56.627Z,5.30
2018-12-10T09:50:22.816Z,5.40
2018-12-10T09:52:49.014Z,5.40
2018-12-10T09:55:18.074Z,5.40
2018-12-10T09:57:44.332Z,5.50
2018-12-10T10:00:10.668Z,5.40
2018-12-10T10:02:36.922Z,5.50
2018-12-10T10:05:03.902Z,5.40
2018-12-10T10:07:30.202Z,5.40
2018-12-10T10:09:56.354Z,5.40
2018-12-10T10:12:23.687Z,5.40
2018-12-10T10:14:50.112Z,5.40
2018-12-10T10:17:16.309Z,5.40
2018-12-10T10:19:42.535Z,5.30
2018-12-10T10:22:08.833Z,5.10
2018-12-10T10:24:35.052Z,4.90
2018-12-10T10:27:01.212Z,4.80
2018-12-10T10:29:27.409Z,4.60
2018-12-10T10:31:53.555Z,4.60
2018-12-10T10:34:19.755Z,4.60
2018-12-10T10:36:45.898Z,5.10
2018-12-10T10:39:12.194Z,5.70
2018-12-10T10:41:38.335Z,6.70
2018-12-10T10:44:04.606Z,7.60
2018-12-10T10:46:30.795Z,7.30
2018-12-10T10:48:56.935Z,7.10
2018-12-10T10:51:23.139Z,6.90
2018-12-10T10:53:49.282Z,6.90
2018-12-10T10:56:15.410Z,6.00
2018-12-10T10:58:41.523Z,5.40
2018-12-10T11:01:13.729Z,6.90
2018-12-10T11:03:39.858Z,8.90
2018-12-10T11:06:06.261Z,9.60
2018-12-10T11:08:32.415Z,10.30
2018-12-10T11:10:58.568Z,9.90
2018-12-10T11:13:24.734Z,8.60
2018-12-10T11:15:50.967Z,8.90
2018-12-10T11:18:17.182Z,10.40
2018-12-10T11:20:43.464Z,11.40
2018-12-10T11:23:09.639Z,11.70
2018-12-10T11:25:35.911Z,12.00
2018-12-10T11:28:02.178Z,11.30
2018-12-10T11:30:28.325Z,11.30
2018-12-10T11:32:54.537Z,10.90
2018-12-10T11:35:20.692Z,9.60
2018-12-10T11:37:46.877Z,8.50
2018-12-10T11:40:13.208Z,8.10
2018-12-10T11:42:39.563Z,7.00
2018-12-10T11:45:05.971Z,6.70
2018-12-10T11:47:32.163Z,6.50
2018-12-10T11:49:58.297Z,6.40
2018-12-10T11:52:24.486Z,6.40
2018-12-10T11:54:50.953Z,6.50
2018-12-10T11:57:17.128Z,6.30
2018-12-10T11:59:43.265Z,6.30
2018-12-10T12:02:09.458Z,6.10
2018-12-10T12:04:35.624Z,6.10
2018-12-10T12:07:01.798Z,6.10
2018-12-10T12:09:27.920Z,6.10
2018-12-10T12:11:54.197Z,6.20
2018-12-10T12:14:20.372Z,6.20
2018-12-10T12:16:46.526Z,6.20
2018-12-10T12:19:12.818Z,6.10
2018-12-10T12:21:38.953Z,6.10
2018-12-10T12:24:05.130Z,6.10
2018-12-10T12:26:31.241Z,6.10
2018-12-10T12:28:57.376Z,6.00
2018-12-10T12:31:23.532Z,5.80
2018-12-10T12:33:49.693Z,5.40
2018-12-10T12:36:15.831Z,5.30
2018-12-10T12:38:41.969Z,5.20
2018-12-10T12:41:08.157Z,5.10
2018-12-10T12:43:34.324Z,4.90
2018-12-10T12:46:00.451Z,4.60
2018-12-10T12:48:26.579Z,4.50
2018-12-10T12:50:52.736Z,4.50
2018-12-10T12:53:25.715Z,4.50
2018-12-10T12:55:51.964Z,4.40
2018-12-10T12:58:18.135Z,4.40
2018-12-10T13:00:44.328Z,4.40
2018-12-10T13:03:10.444Z,4.90
2018-12-10T13:05:36.635Z,5.50
2018-12-10T13:08:02.801Z,6.00
2018-12-10T13:10:28.978Z,6.30
2018-12-10T13:12:55.160Z,6.10
2018-12-10T13:15:21.988Z,5.90
2018-12-10T13:17:48.137Z,5.80
2018-12-10T13:20:14.263Z,5.60
2018-12-10T13:22:47.296Z,5.50
2018-12-10T13:25:09.092Z,5.50
2018-12-10T13:27:35.223Z,5.50
2018-12-10T13:30:08.316Z,5.40
2018-12-10T13:32:34.540Z,5.50
2018-12-10T13:35:00.809Z,5.70
2018-12-10T13:37:27.122Z,5.70
2018-12-10T13:39:53.303Z,5.80
2018-12-10T13:42:19.456Z,5.60
2018-12-10T13:44:45.600Z,5.40
2018-12-10T13:47:11.777Z,5.50
2018-12-10T13:49:38.792Z,5.30
2018-12-10T13:52:09.100Z,5.30
2018-12-10T13:54:33.436Z,5.50
2018-12-10T13:56:59.629Z,5.40
2018-12-10T13:59:25.961Z,5.50
2018-12-10T14:01:52.451Z,5.60
2018-12-10T14:04:19.095Z,5.50
2018-12-10T14:06:45.325Z,5.50
2018-12-10T14:09:18.431Z,5.40
2018-12-10T14:11:44.540Z,5.20
2018-12-10T14:14:10.725Z,5.20
2018-12-10T14:16:36.869Z,5.00
2018-12-10T14:19:03.036Z,5.20
2018-12-10T14:21:29.199Z,5.10
2018-12-10T14:23:55.430Z,5.00
2018-12-10T14:26:28.761Z,5.00
2018-12-10T14:28:55.202Z,4.90
2018-12-10T14:31:21.628Z,4.80
2018-12-10T14:33:47.967Z,4.80
2018-12-10T14:36:14.104Z,4.80
2018-12-10T14:38:40.282Z,4.60
2018-12-10T14:41:06.468Z,4.70
2018-12-10T14:43:32.662Z,4.80
2018-12-10T14:45:58.905Z,4.90
2018-12-10T14:48:32.018Z,4.80
2018-12-10T14:50:58.147Z,4.80
2018-12-10T14:53:24.329Z,4.70
2018-12-10T14:55:50.663Z,4.70
2018-12-10T14:58:16.891Z,4.70
2018-12-10T15:00:43.199Z,4.70
2018-12-10T15:03:09.461Z,4.80
2018-12-10T15:05:35.607Z,4.80
2018-12-10T15:08:01.779Z,4.70
2018-12-10T15:10:27.977Z,4.80
2018-12-10T15:12:54.225Z,4.70
2018-12-10T15:15:20.515Z,4.70
2018-12-10T15:17:46.731Z,4.70
2018-12-10T15:20:13.211Z,4.70
2018-12-10T15:22:39.676Z,4.70
2018-12-10T15:25:06.096Z,4.60
2018-12-10T15:27:32.275Z,4.60
2018-12-10T15:29:58.463Z,4.40
2018-12-10T15:32:24.598Z,4.40
2018-12-10T15:34:50.759Z,4.30
2018-12-10T15:37:17.005Z,4.40
2018-12-10T15:39:43.335Z,4.40
2018-12-10T15:42:09.618Z,4.40
2018-12-10T15:44:35.859Z,4.40
2018-12-10T15:47:02.151Z,4.30
2018-12-10T15:49:28.333Z,4.30
2018-12-10T15:51:54.503Z,4.30
2018-12-10T15:54:20.689Z,4.40
2018-12-10T15:56:53.817Z,4.50
2018-12-10T15:59:19.997Z,4.50
2018-12-10T16:01:46.224Z,4.60
2018-12-10T16:04:12.427Z,4.50
2018-12-10T16:06:38.552Z,4.60
2018-12-10T16:09:06.129Z,4.60
2018-12-10T16:11:32.290Z,4.60
2018-12-10T16:13:58.433Z,4.70
2018-12-10T16:16:24.603Z,4.70
2018-12-10T16:18:50.762Z,4.70
2018-12-10T16:21:17.079Z,4.70
2018-12-10T16:23:43.271Z,4.70
2018-12-10T16:26:09.388Z,4.70
2018-12-10T16:28:35.621Z,4.70
2018-12-10T16:31:08.919Z,4.60
2018-12-10T16:33:35.105Z,4.60
2018-12-10T16:36:08.806Z,4.60
2018-12-10T16:38:35.005Z,4.60
2018-12-10T16:41:01.248Z,4.70
2018-12-10T16:43:34.493Z,4.70
2018-12-10T16:46:00.681Z,4.70
2018-12-10T16:48:26.823Z,4.60
2018-12-10T16:50:59.904Z,4.60
2018-12-10T16:53:26.321Z,4.60
2018-12-10T16:55:52.661Z,4.60
2018-12-10T16:58:18.885Z,4.50
2018-12-10T17:00:45.348Z,4.50
2018-12-10T17:03:11.547Z,4.50
2018-12-10T17:05:37.899Z,4.50
2018-12-10T17:08:04.188Z,4.50
2018-12-10T17:10:30.377Z,4.50
2018-12-10T17:12:56.610Z,4.40
2018-12-10T17:15:22.799Z,4.30
2018-12-10T17:17:48.957Z,4.20
2018-12-10T17:20:15.129Z,4.20
2018-12-10T17:22:41.335Z,4.10
2018-12-10T17:25:14.711Z,4.10
2018-12-10T17:27:40.993Z,4.10
2018-12-10T17:30:07.330Z,4.10
2018-12-10T17:32:33.445Z,3.90
2018-12-10T17:34:59.585Z,3.90
2018-12-10T17:37:25.755Z,3.70
2018-12-10T17:39:51.937Z,3.80
2018-12-10T17:42:18.109Z,3.70
2018-12-10T17:44:44.432Z,3.60
2018-12-10T17:47:10.787Z,3.50
2018-12-10T17:49:37.379Z,3.40
2018-12-10T17:52:03.699Z,3.50
2018-12-10T17:54:29.955Z,3.30
2018-12-10T17:56:56.121Z,3.20
2018-12-10T17:59:22.329Z,3.30
2018-12-10T18:01:48.556Z,3.30
2018-12-10T18:04:14.720Z,3.30
2018-12-10T18:06:41.035Z,3.30
2018-12-10T18:09:07.215Z,3.40
2018-12-10T18:11:33.678Z,3.30
2018-12-10T18:13:59.925Z,3.20
2018-12-10T18:16:26.176Z,3.20
2018-12-10T18:18:52.354Z,3.30
2018-12-10T18:21:18.557Z,3.20
2018-12-10T18:23:44.757Z,3.30
2018-12-10T18:29:04.632Z,3.30
2018-12-10T18:31:30.863Z,3.40
2018-12-10T18:33:57.139Z,3.20
2018-12-10T18:36:23.327Z,3.10
2018-12-10T18:38:49.549Z,3.10
2018-12-10T18:41:15.719Z,3.20
2018-12-10T18:43:41.947Z,3.30
2018-12-10T18:46:08.098Z,3.30
2018-12-10T18:48:34.246Z,3.10
2018-12-10T18:51:00.349Z,3.00
2018-12-10T18:53:26.561Z,3.10
2018-12-10T18:55:52.717Z,3.20
2018-12-10T18:58:18.908Z,3.10
2018-12-10T19:00:45.187Z,3.30
2018-12-10T19:03:11.634Z,3.30
2018-12-10T19:05:37.806Z,3.40
2018-12-10T19:08:04.048Z,3.30
2018-12-10T19:10:30.210Z,3.30
2018-12-10T19:12:56.492Z,3.30
2018-12-10T19:15:22.639Z,3.30
2018-12-10T19:17:48.784Z,3.30
2018-12-10T19:20:14.966Z,3.40
2018-12-10T19:22:41.112Z,3.50
2018-12-10T19:25:07.392Z,3.50
2018-12-10T19:27:33.752Z,3.50
2018-12-10T19:30:00.027Z,3.50
2018-12-10T19:32:26.370Z,3.40
2018-12-10T19:34:53.637Z,3.30
2018-12-10T19:37:19.844Z,3.40
2018-12-10T19:39:46.029Z,3.30
2018-12-10T19:42:19.506Z,3.20
2018-12-10T19:44:45.703Z,3.10
2018-12-10T19:47:11.854Z,3.30
2018-12-10T19:49:45.060Z,3.30
2018-12-10T19:52:11.247Z,3.30
2018-12-10T19:54:37.469Z,3.30
2018-12-10T19:57:03.747Z,3.30
2018-12-10T19:59:29.924Z,3.20
2018-12-10T20:01:56.245Z,3.20
2018-12-10T20:04:22.549Z,3.30
2018-12-10T20:06:54.878Z,3.30
2018-12-10T20:09:21.102Z,3.20
2018-12-10T20:11:47.436Z,3.20
2018-12-10T20:14:13.634Z,3.10
2018-12-10T20:16:40.224Z,3.20
2018-12-10T20:19:06.418Z,3.10
2018-12-10T20:21:32.633Z,3.10
2018-12-10T20:24:05.866Z,3.10
2018-12-10T20:26:32.119Z,3.00
2018-12-10T20:29:05.161Z,3.00
2018-12-10T20:31:31.402Z,3.10
2018-12-10T20:33:57.777Z,3.00
2018-12-10T20:36:30.920Z,3.10
2018-12-10T20:38:57.150Z,3.10
2018-12-10T20:41:23.302Z,3.10
2018-12-10T20:43:49.485Z,3.10
2018-12-10T20:46:15.857Z,3.10
2018-12-10T20:48:42.188Z,3.10
2018-12-10T20:51:08.527Z,3.10
2018-12-10T20:53:34.728Z,3.00
2018-12-10T20:56:00.993Z,3.00
2018-12-10T20:58:27.197Z,2.90
2018-12-10T21:00:53.511Z,2.90
2018-12-10T21:03:19.756Z,3.00
2018-12-10T21:05:52.067Z,3.00
2018-12-10T21:08:18.356Z,3.00
2018-12-10T21:10:44.557Z,2.90
2018-12-10T21:13:10.743Z,2.90
2018-12-10T21:15:36.890Z,3.00
2018-12-10T21:18:03.125Z,2.90
2018-12-10T21:20:29.286Z,2.90
2018-12-10T21:22:55.428Z,2.90
2018-12-10T21:25:21.775Z,2.90
2018-12-10T21:27:48.003Z,2.80
2018-12-10T21:30:14.167Z,2.90
2018-12-10T21:32:40.441Z,3.10
2018-12-10T21:35:06.780Z,3.00
2018-12-10T21:37:32.984Z,3.00
2018-12-10T21:39:59.282Z,3.10
2018-12-10T21:42:25.790Z,3.20
2018-12-10T21:44:52.133Z,3.10
2018-12-10T21:47:18.379Z,3.00
2018-12-10T21:49:44.511Z,3.00
2018-12-10T21:52:17.586Z,2.90
2018-12-10T21:54:43.854Z,3.00
2018-12-10T21:57:09.971Z,3.00
2018-12-10T21:59:36.102Z,3.00
2018-12-10T22:02:02.345Z,3.10
2018-12-10T22:04:28.514Z,3.10
2018-12-10T22:06:54.687Z,3.00
2018-12-10T22:09:20.870Z,3.10
2018-12-10T22:11:47.000Z,3.20
2018-12-10T22:14:13.193Z,3.20
2018-12-10T22:16:39.426Z,3.30
2018-12-10T22:19:05.721Z,3.10
2018-12-10T22:21:32.076Z,3.10
2018-12-10T22:23:58.247Z,3.20
2018-12-10T22:26:24.445Z,3.20
2018-12-10T22:28:50.562Z,3.20
2018-12-10T22:31:16.718Z,3.20
2018-12-10T22:33:42.883Z,3.20
2018-12-10T22:36:09.056Z,3.10
2018-12-10T22:38:35.218Z,3.00
2018-12-10T22:41:01.308Z,3.10
2018-12-10T22:43:27.490Z,3.10
2018-12-10T22:45:53.661Z,3.10
2018-12-10T22:48:19.839Z,3.10
2018-12-10T22:50:45.988Z,3.10
2018-12-10T22:53:12.216Z,3.10
2018-12-10T22:55:38.399Z,3.10
2018-12-10T22:58:04.550Z,3.20
2018-12-10T23:00:37.061Z,3.20
2018-12-10T23:03:03.438Z,3.20
2018-12-10T23:05:29.555Z,3.20
2018-12-10T23:07:55.698Z,3.20
2018-12-10T23:10:21.933Z,3.10
2018-12-10T23:12:48.068Z,3.20
2018-12-10T23:15:14.205Z,3.10
2018-12-10T23:17:40.370Z,3.00
2018-12-10T23:20:06.639Z,3.10
2018-12-10T23:22:39.832Z,3.10
2018-12-10T23:25:06.103Z,3.00
2018-12-10T23:27:32.283Z,3.10
2018-12-10T23:29:58.492Z,3.10
2018-12-10T23:32:24.642Z,3.00
2018-12-10T23:34:50.789Z,3.10
2018-12-10T23:37:16.955Z,3.10
2018-12-10T23:39:43.176Z,3.20
2018-12-10T23:42:09.529Z,3.20
2018-12-10T23:44:41.858Z,3.10
2018-12-10T23:47:08.052Z,3.20
2018-12-10T23:49:34.179Z,3.20
2018-12-10T23:52:00.370Z,3.20
2018-12-10T23:54:26.549Z,3.20
2018-12-10T23:56:52.785Z,3.30
2018-12-10T23:59:18.920Z,3.30
